Time;durP1;ratioP1;P1;durP2;ratioP2;P2;SDS_P1;SDS_P2;PMS_P1;PMS_P2;Temp;Humidity;BMP_temperature;BMP_pressure;BME280_temperature;BME280_humidity;BME280_pressure;Samples;Min_cycle;Max_cycle;Signal;HPM_P1;HPM_P2
2023/04/29 00:00:32;;;;;;;37.42;34.20;;;;;;;17.75;50.11;101382.84;4994138;28;20070;-70
2023/04/29 00:02:57;;;;;;;35.63;32.47;;;;;;;17.72;50.36;101378.75;4976836;28;20459;-70
2023/04/29 00:05:23;;;;;;;40.40;36.47;;;;;;;17.72;50.35;101380.69;4994052;28;20073;-70
2023/04/29 00:07:48;;;;;;;37.15;33.53;;;;;;;17.70;50.27;101380.94;4993890;28;20471;-70
2023/04/29 00:10:14;;;;;;;38.95;35.50;;;;;;;17.69;50.15;101383.97;4993153;28;20042;-70
2023/04/29 00:12:40;;;;;;;36.70;33.15;;;;;;;17.68;49.74;101394.06;4994089;28;20439;-70
2023/04/29 00:15:07;;;;;;;39.22;35.78;;;;;;;17.67;49.91;101392.44;4993641;28;20161;-71
2023/04/29 00:17:33;;;;;;;37.13;34.30;;;;;;;17.66;50.09;101392.69;4993683;28;20092;-70
2023/04/29 00:19:59;;;;;;;38.13;34.90;;;;;;;17.66;49.81;101392.69;4976462;28;20030;-70
2023/04/29 00:22:24;;;;;;;36.03;32.80;;;;;;;17.64;49.65;101395.72;4993423;28;20185;-70
2023/04/29 00:24:52;;;;;;;36.72;33.70;;;;;;;17.62;49.94;101391.63;4993259;28;20043;-70
2023/04/29 00:27:17;;;;;;;38.17;34.95;;;;;;;17.61;49.84;101398.97;4993510;28;20027;-70
2023/04/29 00:29:42;;;;;;;37.25;33.97;;;;;;;17.60;49.73;101404.72;4976296;28;20116;-69
2023/04/29 00:32:08;;;;;;;37.15;33.78;;;;;;;17.57;50.43;101403.38;4993866;28;20101;-71
2023/04/29 00:34:33;;;;;;;34.13;31.25;;;;;;;17.57;50.25;101399.81;4993828;28;20030;-71
2023/04/29 00:36:59;;;;;;;36.60;33.50;;;;;;;17.54;50.30;101406.66;4993927;28;20030;-70
2023/04/29 00:39:24;;;;;;;33.28;30.77;;;;;;;17.54;49.72;101420.31;4977073;28;20042;-70
2023/04/29 00:41:50;;;;;;;36.03;32.88;;;;;;;17.53;49.89;101416.72;4994005;28;20117;-71
2023/04/29 00:44:16;;;;;;;36.97;34.05;;;;;;;17.50;50.21;101414.56;4994230;28;20149;-70
2023/04/29 00:46:41;;;;;;;37.10;34.25;;;;;;;17.51;49.89;101412.63;4993819;28;20057;-71
2023/04/29 00:49:08;;;;;;;35.15;32.47;;;;;;;17.49;50.15;101409.38;4996869;28;20085;-70
2023/04/29 00:51:35;;;;;;;34.90;32.20;;;;;;;17.49;49.86;101412.13;4997509;28;20052;-70
2023/04/29 00:54:01;;;;;;;39.78;35.97;;;;;;;17.46;50.02;101415.38;4964120;28;20053;-71
2023/04/29 00:56:30;;;;;;;33.75;31.33;;;;;;;17.44;49.57;101414.84;4979890;28;20038;-70
2023/04/29 00:58:56;;;;;;;;;;;;;;;17.41;50.09;101418.94;4998177;28;20035;-69
2023/04/29 01:01:22;;;;;;;34.97;32.35;;;;;;;17.41;49.83;101413.47;4997935;28;19918;-70
2023/04/29 01:03:47;;;;;;;35.53;32.83;;;;;;;17.39;49.89;101423.84;4997598;28;20031;-70
2023/04/29 01:06:31;;;;;;;36.55;33.40;;;;;;;17.39;50.03;101418.38;4997164;28;20030;-70
2023/04/29 01:09:09;;;;;;;33.75;31.35;;;;;;;17.36;49.92;101424.41;4997531;28;20086;-70
2023/04/29 01:11:54;;;;;;;33.88;31.27;;;;;;;17.34;50.23;101426.56;4997427;28;20058;-70
2023/04/29 01:14:22;;;;;;;36.22;33.42;;;;;;;17.34;49.95;101426.56;4979964;28;20046;-70
2023/04/29 01:16:51;;;;;;;34.58;32.05;;;;;;;17.35;50.02;101438.31;4997024;28;20108;-71
2023/04/29 01:19:44;;;;;;;35.63;32.78;;;;;;;17.32;49.67;101438.84;4996580;28;20101;-71
2023/04/29 01:22:10;;;;;;;33.45;31.10;;;;;;;17.29;50.00;101443.75;4996978;28;20467;-70
2023/04/29 01:24:35;;;;;;;35.38;32.42;;;;;;;17.29;49.86;101438.31;4979442;28;20026;-71
2023/04/29 01:27:28;;;;;;;32.97;30.55;;;;;;;17.25;49.84;101437.19;4996651;28;20313;-70
2023/04/29 01:30:21;;;;;;;32.90;29.90;;;;;;;17.23;49.85;101436.63;4988615;28;20046;-71
2023/04/29 01:32:57;;;;;;;35.50;31.92;;;;;;;17.24;49.58;101441.03;4997376;28;20121;-71
2023/04/29 01:35:43;;;;;;;36.45;33.30;;;;;;;17.21;50.15;101438.84;4996703;28;20030;-71
2023/04/29 01:38:21;;;;;;;33.28;30.45;;;;;;;17.20;49.87;101437.19;4996988;28;20482;-70
2023/04/29 01:40:55;;;;;;;31.35;28.90;;;;;;;17.20;49.82;101444.56;4996953;28;20031;-70
2023/04/29 01:43:24;;;;;;;34.70;31.73;;;;;;;17.20;49.75;101447.28;4997139;28;20050;-71
2023/04/29 01:45:52;;;;;;;35.25;32.58;;;;;;;17.20;49.93;101452.75;4996586;28;20379;-71
2023/04/29 01:48:18;;;;;;;35.55;32.50;;;;;;;17.20;49.98;101450.84;4996477;28;20097;-71
2023/04/29 01:50:43;;;;;;;34.20;31.55;;;;;;;17.19;50.01;101456.59;4996786;28;20046;-71
2023/04/29 01:53:08;;;;;;;35.22;32.08;;;;;;;17.18;50.10;101452.19;4996337;28;20034;-70
2023/04/29 01:55:34;;;;;;;34.75;31.90;;;;;;;17.17;49.80;101458.75;4996329;28;20038;-70
2023/04/29 01:57:59;;;;;;;31.45;28.92;;;;;;;17.17;49.94;101461.47;4996356;28;20030;-70
2023/04/29 02:00:25;;;;;;;33.63;30.95;;;;;;;17.16;49.96;101455.22;4994914;28;20030;-70
2023/04/29 02:02:50;;;;;;;32.90;30.42;;;;;;;17.16;49.61;101459.81;4995965;28;20041;-71
2023/04/29 02:05:16;;;;;;;35.53;32.70;;;;;;;17.15;50.05;101460.94;4978784;28;20062;-71
2023/04/29 02:07:43;;;;;;;34.15;31.40;;;;;;;17.14;49.67;101459.31;4978847;28;20034;-70
2023/04/29 02:10:09;;;;;;;35.33;32.63;;;;;;;17.13;49.94;101465.84;4995545;28;20537;-70
2023/04/29 02:12:35;;;;;;;31.48;29.23;;;;;;;17.10;49.65;101469.91;4996573;28;20115;-70
2023/04/29 02:15:00;;;;;;;33.00;30.40;;;;;;;17.10;49.68;101467.19;4996050;28;20117;-71
2023/04/29 02:17:26;;;;;;;37.28;34.08;;;;;;;17.08;49.63;101472.09;4995892;28;20062;-71
2023/04/29 02:19:53;;;;;;;35.13;32.38;;;;;;;17.08;49.68;101472.09;4978366;28;20117;-70
2023/04/29 02:22:19;;;;;;;35.70;32.55;;;;;;;17.06;49.74;101474.28;4995879;28;20034;-71
2023/04/29 02:24:45;;;;;;;33.80;31.42;;;;;;;17.05;49.83;101478.91;4996608;28;20447;-70
2023/04/29 02:27:10;;;;;;;34.05;31.25;;;;;;;17.05;49.74;101478.91;4995736;28;20386;-70
2023/04/29 02:29:36;;;;;;;33.90;31.40;;;;;;;17.04;49.70;101485.47;4995311;28;20069;-70
2023/04/29 02:32:01;;;;;;;33.25;30.67;;;;;;;17.03;49.96;101485.72;4995699;28;20031;-69
2023/04/29 02:34:27;;;;;;;36.10;33.17;;;;;;;17.01;49.83;101486.00;4995539;28;20046;-70
2023/04/29 02:36:52;;;;;;;34.80;31.95;;;;;;;17.02;49.46;101492.28;4995520;28;20027;-70
2023/04/29 02:39:19;;;;;;;32.22;29.75;;;;;;;17.01;50.03;101499.66;4996281;28;20038;-70
2023/04/29 02:41:44;;;;;;;32.58;30.05;;;;;;;16.98;49.82;101500.16;4995714;28;20119;-70
2023/04/29 02:44:10;;;;;;;35.33;32.53;;;;;;;16.97;49.51;101505.91;4995416;28;20100;-69
2023/04/29 02:46:36;;;;;;;33.58;31.00;;;;;;;16.94;49.61;101510.00;4995335;28;20038;-70
2023/04/29 02:49:02;;;;;;;34.92;31.85;;;;;;;16.92;49.97;101519.53;4978593;28;20031;-70
2023/04/29 02:51:28;;;;;;;34.72;31.92;;;;;;;16.91;49.73;101505.06;4995174;28;20110;-70
2023/04/29 02:53:54;;;;;;;32.63;30.23;;;;;;;16.89;49.86;101507.25;4977798;28;20044;-70
2023/04/29 02:56:20;;;;;;;36.38;33.50;;;;;;;16.91;49.73;101520.59;4995208;28;20121;-70
2023/04/29 02:58:45;;;;;;;29.05;27.35;;;;;;;16.90;49.70;101527.16;4978606;28;20042;-70
2023/04/29 03:01:11;;;;;;;30.10;28.17;;;;;;;16.89;49.64;101517.34;4995394;28;20031;-70
2023/04/29 03:03:36;;;;;;;32.78;30.23;;;;;;;16.87;49.80;101520.31;4995301;28;20034;-70
2023/04/29 03:06:02;;;;;;;32.72;30.25;;;;;;;16.87;49.71;101514.88;4995132;28;20038;-71
2023/04/29 03:08:27;;;;;;;33.35;30.83;;;;;;;16.86;49.61;101510.50;4995093;28;20121;-69
2023/04/29 03:10:53;;;;;;;34.88;31.60;;;;;;;16.85;49.77;101519.75;4994190;28;20133;-70
2023/04/29 03:13:19;;;;;;;35.42;32.08;;;;;;;16.84;49.62;101520.88;4995209;28;20038;-69
2023/04/29 03:15:44;;;;;;;35.15;32.20;;;;;;;16.82;49.86;101523.84;4994772;28;20466;-70
2023/04/29 03:18:10;;;;;;;31.73;29.42;;;;;;;16.82;49.82;101534.75;4994817;28;20057;-70
2023/04/29 03:20:35;;;;;;;33.13;30.50;;;;;;;16.81;49.64;101535.84;4994700;28;20459;-70
2023/04/29 03:23:01;;;;;;;33.00;30.42;;;;;;;16.80;49.63;101534.19;4995019;28;20088;-69
2023/04/29 03:25:27;;;;;;;31.83;29.42;;;;;;;16.78;49.47;101544.59;4994900;28;20451;-70
2023/04/29 03:27:53;;;;;;;34.53;31.73;;;;;;;16.77;50.01;101536.63;4994924;28;20125;-70
2023/04/29 03:30:18;;;;;;;34.70;31.60;;;;;;;16.77;49.83;101540.16;4976781;28;20185;-71
2023/04/29 03:32:43;;;;;;;32.83;30.35;;;;;;;16.76;49.69;101541.25;4994597;28;20030;-70
2023/04/29 03:35:10;;;;;;;34.63;31.90;;;;;;;16.76;49.96;101549.44;4994283;28;20496;-70
2023/04/29 03:37:36;;;;;;;33.92;31.13;;;;;;;16.75;49.97;101541.50;4994671;28;20038;-70
2023/04/29 03:40:01;;;;;;;32.67;29.80;;;;;;;16.75;49.68;101536.88;4994473;28;20037;-69
2023/04/29 03:42:27;;;;;;;30.70;28.52;;;;;;;16.72;49.88;101545.59;4994697;28;20382;-70
2023/04/29 03:44:52;;;;;;;32.38;29.73;;;;;;;16.71;49.80;101541.22;4994892;28;20113;-70
2023/04/29 03:47:18;;;;;;;32.22;29.85;;;;;;;16.70;49.90;101542.31;4977172;28;20030;-70
2023/04/29 03:49:43;;;;;;;33.35;31.15;;;;;;;16.69;49.58;101548.03;4994180;28;20454;-70
2023/04/29 03:52:08;;;;;;;32.05;29.40;;;;;;;16.69;49.75;101539.84;4976963;28;20026;-70
2023/04/29 03:54:34;;;;;;;35.78;32.97;;;;;;;16.67;49.71;101548.28;4976734;28;20104;-70
2023/04/29 03:57:00;;;;;;;33.05;30.13;;;;;;;16.65;49.69;101550.47;4994289;28;20062;-70
2023/04/29 03:59:25;;;;;;;33.85;31.08;;;;;;;16.65;49.65;101553.19;4994075;28;20078;-69
2023/04/29 04:01:53;;;;;;;31.88;29.40;;;;;;;16.64;49.87;101551.56;4976637;28;20069;-70
2023/04/29 04:04:18;;;;;;;34.05;31.30;;;;;;;16.63;49.79;101549.88;4994665;28;20034;-70
2023/04/29 04:06:49;;;;;;;32.22;29.48;;;;;;;16.62;49.65;101543.63;4994058;28;20046;-70
2023/04/29 04:09:15;;;;;;;32.83;29.80;;;;;;;16.60;49.84;101556.69;4994031;28;20031;-69
2023/04/29 04:11:41;;;;;;;31.58;29.13;;;;;;;16.60;49.52;101556.69;4993897;28;20061;-70
2023/04/29 04:14:06;;;;;;;31.60;29.15;;;;;;;16.60;49.64;101564.06;4976580;28;20045;-70
2023/04/29 04:16:31;;;;;;;33.70;31.08;;;;;;;16.58;49.50;101560.78;4994048;28;20113;-70
2023/04/29 04:18:58;;;;;;;33.30;30.75;;;;;;;16.57;50.00;101565.41;4993794;28;20121;-70
2023/04/29 04:21:24;;;;;;;31.70;29.33;;;;;;;16.57;49.61;101565.41;4993977;28;20041;-71
2023/04/29 04:23:50;;;;;;;32.47;30.17;;;;;;;16.56;49.76;101571.97;4996890;28;20065;-70
2023/04/29 04:26:15;;;;;;;32.83;30.45;;;;;;;16.55;49.50;101573.03;4998179;28;20069;-70
2023/04/29 04:28:41;;;;;;;32.35;30.00;;;;;;;16.55;50.04;101577.66;4997858;28;20502;-72
2023/04/29 04:31:06;;;;;;;33.00;30.08;;;;;;;16.54;49.38;101570.59;4997970;28;20390;-70
2023/04/29 04:33:33;;;;;;;34.22;31.27;;;;;;;16.53;49.46;101575.22;4998110;28;20039;-71
2023/04/29 04:35:58;;;;;;;33.80;30.55;;;;;;;16.52;49.51;101578.19;4997796;28;20041;-69
2023/04/29 04:38:25;;;;;;;33.38;30.60;;;;;;;16.51;49.92;101582.84;4997800;28;20038;-70
2023/04/29 04:40:50;;;;;;;33.83;30.83;;;;;;;16.50;49.70;101594.81;4997826;28;20045;-70
2023/04/29 04:43:16;;;;;;;30.05;27.85;;;;;;;16.49;49.69;101593.19;4998017;28;20038;-70
2023/04/29 04:45:42;;;;;;;31.10;28.58;;;;;;;16.48;49.65;101599.72;4980351;28;20112;-70
2023/04/29 04:48:07;;;;;;;30.52;28.25;;;;;;;16.48;49.45;101601.59;4980841;28;20122;-70
2023/04/29 04:50:33;;;;;;;30.80;28.17;;;;;;;16.47;49.70;101606.25;4980043;28;20030;-70
2023/04/29 04:52:58;;;;;;;28.00;26.33;;;;;;;16.46;49.61;101612.81;4997590;28;20041;-71
2023/04/29 04:55:24;;;;;;;31.08;28.67;;;;;;;16.46;49.78;101617.44;4997485;28;20050;-70
2023/04/29 04:57:50;;;;;;;29.92;27.77;;;;;;;16.45;49.74;101619.31;4997405;28;20034;-70
2023/04/29 05:00:16;;;;;;;29.35;27.13;;;;;;;16.43;49.84;101619.59;4980366;28;20040;-70
2023/04/29 05:02:41;;;;;;;32.15;29.77;;;;;;;16.44;49.68;101629.41;4980208;28;20497;-70
2023/04/29 05:05:07;;;;;;;32.38;29.77;;;;;;;16.42;49.63;101622.56;4997867;28;20039;-70
2023/04/29 05:07:34;;;;;;;32.67;30.05;;;;;;;16.40;49.47;101625.56;4997748;28;20034;-70
2023/04/29 05:10:01;;;;;;;33.65;30.52;;;;;;;16.41;49.86;101632.66;4997173;28;20030;-70
2023/04/29 05:12:30;;;;;;;31.52;29.13;;;;;;;16.40;49.75;101635.63;4979456;28;20057;-70
2023/04/29 05:14:56;;;;;;;30.30;27.88;;;;;;;16.38;49.75;101635.91;4997466;28;20034;-70
2023/04/29 05:17:22;;;;;;;30.27;27.98;;;;;;;16.39;49.79;101642.19;4997404;28;20026;-70
2023/04/29 05:19:47;;;;;;;30.50;27.75;;;;;;;16.38;49.67;101641.38;4996989;28;20033;-70
2023/04/29 05:22:12;;;;;;;28.98;26.95;;;;;;;16.38;49.92;101648.72;4997578;28;20035;-71
2023/04/29 05:24:38;;;;;;;31.80;29.20;;;;;;;16.36;49.71;101648.97;4996565;28;20521;-70
2023/04/29 05:27:03;;;;;;;30.02;27.45;;;;;;;16.36;49.59;101650.88;4996611;28;20038;-71
2023/04/29 05:29:29;;;;;;;31.50;28.98;;;;;;;16.35;49.41;101641.88;4996793;28;20065;-71
2023/04/29 05:31:55;;;;;;;31.40;29.10;;;;;;;16.34;49.54;101648.41;4996890;28;20108;-70
2023/04/29 05:34:20;;;;;;;31.20;28.35;;;;;;;16.34;49.82;101655.78;4996141;28;20435;-70
2023/04/29 05:36:46;;;;;;;31.23;28.63;;;;;;;16.33;49.87;101654.97;4996687;28;20038;-69
2023/04/29 05:39:11;;;;;;;29.63;27.27;;;;;;;16.32;49.89;101652.47;4996615;28;20041;-70
2023/04/29 05:41:36;;;;;;;31.27;29.05;;;;;;;16.30;49.63;101650.00;4996613;28;20453;-70
2023/04/29 05:44:02;;;;;;;32.25;29.73;;;;;;;16.30;49.69;101663.63;4979111;28;20471;-70
2023/04/29 05:46:27;;;;;;;30.85;28.63;;;;;;;16.29;49.90;101669.38;4996595;28;20030;-70
2023/04/29 05:48:53;;;;;;;30.42;28.33;;;;;;;16.28;49.58;101671.28;4996435;28;20026;-69
2023/04/29 05:51:18;;;;;;;29.27;27.25;;;;;;;16.27;49.52;101671.50;4996807;28;20141;-70
2023/04/29 05:53:44;;;;;;;32.50;29.95;;;;;;;16.27;49.89;101676.97;4979475;28;20512;-70
2023/04/29 05:56:09;;;;;;;30.90;28.52;;;;;;;16.27;49.68;101674.25;4979005;28;20113;-69
2023/04/29 05:58:35;;;;;;;32.17;29.33;;;;;;;16.26;49.94;101687.06;4996242;28;20498;-70
2023/04/29 06:01:01;;;;;;;31.63;29.15;;;;;;;16.26;49.63;101687.06;4996294;28;20129;-69
2023/04/29 06:03:27;;;;;;;29.02;26.83;;;;;;;16.24;49.73;101689.22;4996513;28;20109;-70
2023/04/29 06:05:52;;;;;;;29.98;27.98;;;;;;;16.25;49.81;101699.03;4996144;28;20062;-70
2023/04/29 06:08:19;;;;;;;30.08;28.00;;;;;;;16.23;49.38;101699.31;4996645;28;20057;-70
2023/04/29 06:10:45;;;;;;;32.30;29.58;;;;;;;16.23;49.64;101701.22;4995873;28;20034;-69
2023/04/29 06:13:10;;;;;;;26.88;25.30;;;;;;;16.22;49.52;101705.81;4996427;28;20030;-69
2023/04/29 06:15:36;;;;;;;30.75;28.33;;;;;;;16.21;49.65;101706.09;4996425;28;20360;-71
2023/04/29 06:18:01;;;;;;;30.65;28.08;;;;;;;16.21;49.55;101714.28;4996422;28;20477;-71
2023/04/29 06:20:26;;;;;;;29.77;27.45;;;;;;;16.20;49.84;101716.19;4978853;28;20030;-70
2023/04/29 06:22:52;;;;;;;30.75;28.60;;;;;;;16.20;50.04;101712.59;4995796;28;20486;-70
2023/04/29 06:25:17;;;;;;;28.73;26.83;;;;;;;16.18;49.82;101707.44;4995551;28;20034;-70
2023/04/29 06:27:43;;;;;;;31.77;29.08;;;;;;;16.18;49.65;101718.31;4978354;28;20083;-70
2023/04/29 06:30:08;;;;;;;30.48;28.08;;;;;;;16.17;49.60;101718.56;4995738;28;20462;-69
2023/04/29 06:32:34;;;;;;;30.85;28.40;;;;;;;16.17;49.83;101724.84;4978229;28;20038;-71
2023/04/29 06:35:00;;;;;;;29.25;27.05;;;;;;;16.17;49.98;101726.75;4995377;28;20032;-70
2023/04/29 06:37:26;;;;;;;31.63;29.38;;;;;;;16.17;49.87;101724.03;4996101;28;20153;-71
2023/04/29 06:39:51;;;;;;;32.53;29.67;;;;;;;16.15;49.53;101737.94;4995221;28;20375;-70
2023/04/29 06:42:17;;;;;;;30.13;27.83;;;;;;;16.15;49.89;101739.81;4995584;28;20037;-70
2023/04/29 06:44:42;;;;;;;33.30;30.63;;;;;;;16.15;49.88;101739.81;4995633;28;20438;-69
2023/04/29 06:47:08;;;;;;;27.98;25.92;;;;;;;16.16;49.78;101746.94;4978051;28;20030;-68
2023/04/29 06:49:34;;;;;;;29.27;26.85;;;;;;;16.14;49.72;101749.88;4995267;28;20050;-69
2023/04/29 06:52:01;;;;;;;31.48;28.92;;;;;;;16.13;50.00;101753.72;4995741;28;20121;-69
2023/04/29 06:54:27;;;;;;;31.10;28.67;;;;;;;16.13;49.83;101753.72;4995521;28;20034;-70
2023/04/29 06:56:52;;;;;;;30.75;28.63;;;;;;;16.12;49.62;101762.94;4978116;28;20041;-70
2023/04/29 06:59:18;;;;;;;31.13;28.83;;;;;;;16.12;49.76;101770.31;4995430;28;20026;-69
2023/04/29 07:01:43;;;;;;;34.60;31.55;;;;;;;16.11;49.85;101774.94;4995123;28;20108;-70
2023/04/29 07:04:09;;;;;;;29.55;26.98;;;;;;;16.12;49.56;101773.03;4995122;28;20430;-70
2023/04/29 07:06:35;;;;;;;30.40;28.10;;;;;;;16.12;49.81;101775.75;4995304;28;20038;-69
2023/04/29 07:09:01;;;;;;;28.67;26.73;;;;;;;16.11;49.89;101779.56;4994862;28;20034;-70
2023/04/29 07:11:26;;;;;;;30.30;28.00;;;;;;;16.10;49.70;101783.34;4994857;28;20046;-69
2023/04/29 07:13:52;;;;;;;34.53;31.40;;;;;;;16.10;49.72;101780.63;4994818;28;20138;-69
2023/04/29 07:16:20;;;;;;;28.67;26.58;;;;;;;16.09;49.98;101779.81;4994857;28;20053;-69
2023/04/29 07:18:46;;;;;;;28.63;26.63;;;;;;;16.09;49.96;101781.72;4994720;28;20042;-70
2023/04/29 07:21:11;;;;;;;29.98;27.23;;;;;;;16.09;49.65;101779.00;4995077;28;20034;-70
2023/04/29 07:23:37;;;;;;;28.85;26.88;;;;;;;16.09;49.71;101789.91;4994660;28;20391;-69
2023/04/29 07:26:12;;;;;;;28.52;26.52;;;;;;;16.08;49.91;101788.25;4994667;28;20089;-70
2023/04/29 07:28:38;;;;;;;28.33;26.30;;;;;;;16.07;49.76;101795.59;4995092;28;20038;-69
2023/04/29 07:31:04;;;;;;;32.35;29.83;;;;;;;16.07;49.91;101801.03;4977011;28;20045;-69
2023/04/29 07:33:30;;;;;;;29.02;26.95;;;;;;;16.07;49.79;101806.50;4994580;28;20113;-70
2023/04/29 07:35:55;;;;;;;30.90;28.23;;;;;;;16.08;49.76;101799.16;4994435;28;20142;-70
2023/04/29 07:38:21;;;;;;;28.77;26.60;;;;;;;16.08;49.90;101810.06;4994525;28;20390;-69
2023/04/29 07:40:46;;;;;;;31.80;29.30;;;;;;;16.07;49.61;101800.22;4994369;28;20042;-70
2023/04/29 07:43:11;;;;;;;29.48;27.17;;;;;;;16.07;49.79;101805.69;4994516;28;20037;-69
2023/04/29 07:45:38;;;;;;;30.55;27.63;;;;;;;16.07;49.64;101811.13;4995225;28;20466;-70
2023/04/29 07:48:04;;;;;;;29.05;26.95;;;;;;;16.07;49.73;101811.94;4994737;28;20041;-69
2023/04/29 07:50:30;;;;;;;30.02;27.45;;;;;;;16.08;49.75;101815.53;4994286;28;20121;-69
2023/04/29 07:52:56;;;;;;;29.60;27.38;;;;;;;16.08;49.81;101812.78;4994550;28;20065;-69
2023/04/29 07:55:22;;;;;;;28.88;26.45;;;;;;;16.08;49.96;101823.69;4977113;28;20030;-70
2023/04/29 07:57:47;;;;;;;30.60;28.20;;;;;;;16.08;49.57;101812.78;4993874;28;20434;-70
2023/04/29 08:00:13;;;;;;;29.08;26.92;;;;;;;16.08;49.76;101821.78;4994526;28;20089;-69
2023/04/29 08:02:38;;;;;;;30.27;27.98;;;;;;;16.08;49.85;101821.78;4977149;28;20042;-69
2023/04/29 08:05:04;;;;;;;29.38;27.23;;;;;;;16.08;49.79;101821.78;4994368;28;20138;-70
2023/04/29 08:07:30;;;;;;;30.17;27.85;;;;;;;16.08;49.59;101824.50;4994385;28;20513;-68
2023/04/29 08:09:55;;;;;;;30.20;27.95;;;;;;;16.09;50.05;101825.34;4976711;28;20113;-69
2023/04/29 08:12:21;;;;;;;29.60;27.48;;;;;;;16.09;49.59;101828.06;4993880;28;20081;-69
2023/04/29 08:14:46;;;;;;;31.25;28.60;;;;;;;16.10;49.61;101827.81;4976682;28;20035;-71
2023/04/29 08:17:11;;;;;;;29.38;27.15;;;;;;;16.10;49.85;101827.81;4993750;28;20027;-70
2023/04/29 08:19:37;;;;;;;29.95;27.83;;;;;;;16.11;49.64;101832.19;4993696;28;20047;-70
2023/04/29 08:22:03;;;;;;;31.08;28.60;;;;;;;16.09;49.83;101836.22;4993907;28;20474;-70
2023/04/29 08:24:29;;;;;;;31.52;29.10;;;;;;;16.10;49.85;101830.53;4994112;28;20030;-69
2023/04/29 08:26:54;;;;;;;33.33;30.15;;;;;;;16.12;49.96;101833.00;4993699;28;20042;-69
2023/04/29 08:29:20;;;;;;;30.35;27.85;;;;;;;16.12;50.01;101833.81;4993826;28;20027;-69
2023/04/29 08:31:45;;;;;;;34.70;31.38;;;;;;;16.13;49.83;101835.47;4993814;28;20049;-70
2023/04/29 08:34:11;;;;;;;29.27;27.13;;;;;;;16.13;49.96;101837.38;4993934;28;20035;-69
2023/04/29 08:36:37;;;;;;;30.85;28.50;;;;;;;16.14;49.90;101828.94;4993824;28;20058;-69
2023/04/29 08:39:03;;;;;;;29.92;27.88;;;;;;;16.14;50.11;101841.75;4993724;28;20049;-69
2023/04/29 08:41:31;;;;;;;28.15;26.38;;;;;;;16.14;50.08;101841.75;4994269;28;20038;-69
2023/04/29 08:43:58;;;;;;;28.38;26.27;;;;;;;16.14;50.04;101839.03;4976208;28;20057;-69
2023/04/29 08:46:25;;;;;;;27.38;25.58;;;;;;;16.17;50.01;101841.25;4993801;28;20034;-70
2023/04/29 08:48:51;;;;;;;30.85;28.33;;;;;;;16.17;50.02;101839.31;4993338;28;20038;-68
2023/04/29 08:51:17;;;;;;;34.10;30.70;;;;;;;16.18;49.91;101835.53;4994374;28;20042;-69
2023/04/29 08:53:42;;;;;;;29.77;27.50;;;;;;;16.20;49.95;101833.41;4994169;28;20026;-69
2023/04/29 08:56:12;;;;;;;30.08;27.65;;;;;;;16.22;49.74;101844.84;4993561;28;20039;-70
2023/04/29 08:58:39;;;;;;;31.55;28.98;;;;;;;16.26;50.17;101847.91;4993689;28;20038;-69
2023/04/29 09:01:07;;;;;;;31.02;28.63;;;;;;;16.28;49.84;101845.75;4994344;28;20038;-69
2023/04/29 09:03:45;;;;;;;33.30;30.60;;;;;;;16.28;50.00;101848.47;4993702;28;20085;-69
2023/04/29 09:06:11;;;;;;;29.85;27.45;;;;;;;16.30;50.00;101854.47;4976090;28;20467;-70
2023/04/29 09:08:38;;;;;;;27.90;25.90;;;;;;;16.32;49.82;101854.25;4976836;28;20045;-68
2023/04/29 09:11:06;;;;;;;34.97;32.13;;;;;;;16.33;50.15;101862.19;4963759;28;20054;-69
2023/04/29 09:13:32;;;;;;;;;;;;;;;16.31;50.06;101858.88;4998214;28;20415;-70
2023/04/29 09:15:57;;;;;;;30.83;28.33;;;;;;;16.32;49.83;101860.50;4997069;28;19918;-70
2023/04/29 09:18:46;;;;;;;29.27;27.00;;;;;;;16.33;50.19;101856.72;4997135;28;20030;-69
2023/04/29 09:21:17;;;;;;;29.75;27.55;;;;;;;16.35;49.92;101861.91;4997080;28;20029;-68
2023/04/29 09:23:43;;;;;;;29.45;27.35;;;;;;;16.36;50.36;101858.94;4997506;28;20031;-69
2023/04/29 09:26:09;;;;;;;38.60;35.28;;;;;;;16.38;50.26;101866.88;4996863;28;20034;-70
2023/04/29 09:28:34;;;;;;;32.83;29.98;;;;;;;16.42;50.24;101865.28;4995633;28;20038;-68
2023/04/29 09:31:05;;;;;;;28.67;26.52;;;;;;;16.43;49.94;101869.66;4996754;28;20030;-69
2023/04/29 09:33:31;;;;;;;32.08;29.25;;;;;;;16.46;50.08;101868.31;4996855;28;20108;-71
2023/04/29 09:35:56;;;;;;;31.65;29.15;;;;;;;16.47;50.13;101865.31;4979337;28;20065;-71
2023/04/29 09:38:21;;;;;;;30.70;28.48;;;;;;;16.49;50.00;101868.63;4996189;28;20113;-70
2023/04/29 09:40:47;;;;;;;31.95;29.50;;;;;;;16.52;50.24;101868.13;4996417;28;20038;-69
2023/04/29 09:43:17;;;;;;;29.58;27.48;;;;;;;16.54;50.23;101867.88;4996104;28;20037;-70
2023/04/29 09:45:46;;;;;;;32.20;30.05;;;;;;;16.57;50.38;101881.00;4995891;28;20532;-71
2023/04/29 09:48:13;;;;;;;28.23;26.38;;;;;;;16.57;50.63;101881.81;4996194;28;20034;-71
2023/04/29 09:50:40;;;;;;;31.52;29.02;;;;;;;16.60;50.38;101878.56;4996126;28;20037;-70
2023/04/29 09:53:08;;;;;;;31.02;28.95;;;;;;;16.63;50.44;101883.53;4996125;28;20034;-69
2023/04/29 09:55:35;;;;;;;29.20;27.17;;;;;;;16.65;50.50;101884.06;4996129;28;20045;-71
2023/04/29 09:58:00;;;;;;;33.58;30.90;;;;;;;16.68;50.26;101882.75;4995626;28;20431;-70
2023/04/29 10:00:31;;;;;;;31.75;29.00;;;;;;;16.72;49.83;101889.34;4978401;28;20084;-71
2023/04/29 10:02:58;;;;;;;32.22;29.88;;;;;;;16.74;49.94;101887.19;4996372;28;20053;-70
2023/04/29 10:05:27;;;;;;;32.45;29.63;;;;;;;16.78;50.28;101903.91;4995923;28;20022;-71
2023/04/29 10:07:54;;;;;;;32.47;29.92;;;;;;;16.79;50.09;101900.09;4977637;28;20030;-71
2023/04/29 10:10:21;;;;;;;32.22;30.02;;;;;;;16.82;49.95;101894.94;4995318;28;20455;-71
2023/04/29 10:12:46;;;;;;;33.67;31.13;;;;;;;16.84;50.13;101898.25;4995190;28;20129;-71
2023/04/29 10:15:28;;;;;;;32.67;30.25;;;;;;;16.86;50.20;101901.53;4978008;28;20433;-70
2023/04/29 10:17:57;;;;;;;30.60;28.48;;;;;;;16.88;50.41;101898.53;4995060;28;20475;-70
2023/04/29 10:20:24;;;;;;;30.73;28.58;;;;;;;16.92;50.08;101898.88;4976987;28;20030;-70
2023/04/29 10:22:51;;;;;;;31.63;28.95;;;;;;;16.93;50.37;101898.59;4995347;28;20396;-70
2023/04/29 10:25:21;;;;;;;29.98;27.77;;;;;;;16.97;50.43;101898.91;4995465;28;20077;-71
2023/04/29 10:27:49;;;;;;;29.63;27.70;;;;;;;16.99;50.15;101903.03;4995158;28;20030;-70
2023/04/29 10:30:16;;;;;;;32.97;30.48;;;;;;;17.02;50.06;101898.97;4995033;28;20034;-71
2023/04/29 10:32:47;;;;;;;31.17;28.95;;;;;;;17.05;50.18;101898.44;4995155;28;20037;-71
2023/04/29 10:35:15;;;;;;;31.55;29.35;;;;;;;17.07;50.39;101896.28;4994915;28;20038;-71
2023/04/29 10:37:41;;;;;;;32.30;29.83;;;;;;;17.08;50.12;101906.97;4994995;28;20026;-70
2023/04/29 10:40:12;;;;;;;34.85;31.90;;;;;;;17.13;50.17;101902.63;4994977;28;20438;-70
2023/04/29 10:42:41;;;;;;;32.33;29.73;;;;;;;17.16;50.23;101910.28;4995224;28;20034;-70
2023/04/29 10:45:31;;;;;;;33.83;31.27;;;;;;;17.16;50.25;101902.94;4994953;28;20370;-70
2023/04/29 10:48:07;;;;;;;31.95;29.67;;;;;;;17.18;50.49;101910.84;4994625;28;20061;-70
2023/04/29 10:50:38;;;;;;;32.22;29.70;;;;;;;17.19;50.19;101907.88;4995059;28;20027;-69
2023/04/29 10:53:04;;;;;;;32.22;29.98;;;;;;;17.22;50.04;101912.81;4994983;28;20026;-70
2023/04/29 10:55:30;;;;;;;28.30;26.30;;;;;;;17.24;50.35;101909.84;4994983;28;20431;-70
2023/04/29 10:57:56;;;;;;;33.92;31.38;;;;;;;17.28;50.45;101914.50;4994290;28;20040;-70
2023/04/29 11:00:25;;;;;;;31.98;29.52;;;;;;;17.32;50.04;101911.28;4994356;28;20430;-70
2023/04/29 11:02:53;;;;;;;30.98;28.88;;;;;;;17.35;50.58;101914.31;4977414;28;20142;-70
2023/04/29 11:05:31;;;;;;;32.47;30.23;;;;;;;17.36;50.24;101915.13;4994686;28;20163;-70
2023/04/29 11:08:22;;;;;;;31.23;29.05;;;;;;;17.37;50.49;101914.88;4977356;28;20030;-69